Time;durP1;ratioP1;P1;durP2;ratioP2;P2;SDS_P1;SDS_P2;PMS_P1;PMS_P2;Temp;Humidity;BMP_temperature;BMP_pressure;BME280_temperature;BME280_humidity;BME280_pressure;Samples;Min_cycle;Max_cycle;Signal;HPM_P1;HPM_P2
2024/04/08 00:02:58;;;;;;;5.18;1.67;;;14.60;99.90;;;;;;13587320;26;20428;-36
2024/04/08 00:09:00;;;;;;;7.38;1.65;;;14.60;99.90;;;;;;13513428;26;20523;-36
2024/04/08 00:15:02;;;;;;;8.27;2.88;;;14.40;99.90;;;;;;13549180;26;20477;-36
2024/04/08 00:21:05;;;;;;;3.42;2.00;;;14.50;99.90;;;;;;13549750;26;20007;-36
2024/04/08 00:27:07;;;;;;;5.40;1.77;;;14.40;99.90;;;;;;13459031;26;20000;-36
2024/04/08 00:33:09;;;;;;;4.95;1.73;;;14.40;99.90;;;;;;13483841;26;20070;-36
2024/04/08 00:39:11;;;;;;;5.75;1.73;;;14.50;99.90;;;;;;13526302;26;20083;-36
2024/04/08 00:45:14;;;;;;;5.10;2.17;;;14.20;99.90;;;;;;13543961;26;20010;-36
2024/04/08 00:51:17;;;;;;;6.05;2.10;;;14.20;99.90;;;;;;13495711;26;20058;-36
2024/04/08 00:57:19;;;;;;;5.10;1.73;;;14.40;99.90;;;;;;13526378;26;20402;-36
2024/04/08 01:03:21;;;;;;;7.85;2.00;;;14.20;99.90;;;;;;13489890;26;20459;-36
2024/04/08 01:09:23;;;;;;;7.70;2.10;;;14.20;99.90;;;;;;13487391;26;19999;-36
2024/04/08 01:15:26;;;;;;;6.50;1.65;;;14.30;99.90;;;;;;13530622;26;20459;-36
2024/04/08 01:21:27;;;;;;;4.25;2.08;;;14.40;99.90;;;;;;13535371;26;20003;-36
2024/04/08 01:27:30;;;;;;;8.02;2.33;;;14.30;99.90;;;;;;13532697;26;20010;-36
2024/04/08 01:33:32;;;;;;;6.78;3.72;;;14.20;99.90;;;;;;13526707;26;19998;-36
2024/04/08 01:39:35;;;;;;;12.65;3.80;;;13.90;99.90;;;;;;13505510;26;20324;-36
2024/04/08 01:45:37;;;;;;;5.97;3.10;;;14.00;99.90;;;;;;13520007;26;20014;-36
2024/04/08 01:51:38;;;;;;;9.07;3.10;;;13.90;99.90;;;;;;13513645;26;20042;-35
2024/04/08 01:57:40;;;;;;;6.95;2.97;;;13.80;99.90;;;;;;13525458;26;20006;-36
2024/04/08 02:03:42;;;;;;;5.45;2.30;;;13.60;99.90;;;;;;13514596;26;19998;-36
2024/04/08 02:09:44;;;;;;;9.75;2.33;;;13.40;99.90;;;;;;13551687;26;20007;-36
2024/04/08 02:15:47;;;;;;;6.57;2.00;;;13.30;99.90;;;;;;13531202;26;20020;-35
2024/04/08 02:21:48;;;;;;;6.55;2.25;;;13.30;99.90;;;;;;13541266;26;20471;-35
2024/04/08 02:27:50;;;;;;;9.48;2.38;;;13.30;99.90;;;;;;13471813;26;21844;-36
2024/04/08 02:33:52;;;;;;;6.13;2.50;;;13.30;99.90;;;;;;13542879;26;20343;-36
2024/04/08 02:39:54;;;;;;;5.85;2.67;;;13.50;99.90;;;;;;13537521;26;20006;-35
2024/04/08 02:45:56;;;;;;;8.02;2.50;;;13.40;99.90;;;;;;13521464;26;20463;-35
2024/04/08 02:51:58;;;;;;;5.88;2.60;;;13.50;99.90;;;;;;13529261;26;20079;-36
2024/04/08 02:58:00;;;;;;;7.15;2.50;;;13.40;99.90;;;;;;13524317;26;20010;-36
2024/04/08 03:04:02;;;;;;;8.82;2.40;;;13.20;99.90;;;;;;13518362;26;20010;-36
2024/04/08 03:10:05;;;;;;;8.27;2.50;;;13.30;99.90;;;;;;13526059;26;20076;-36
2024/04/08 03:16:07;;;;;;;6.20;2.28;;;13.40;99.90;;;;;;13552118;26;20010;-36
2024/04/08 03:22:09;;;;;;;6.38;2.38;;;13.50;99.90;;;;;;13497102;26;20019;-35
2024/04/08 03:28:11;;;;;;;8.75;2.40;;;13.50;99.90;;;;;;13462424;26;20485;-36
2024/04/08 03:34:13;;;;;;;4.40;2.42;;;13.30;99.90;;;;;;13523750;26;20074;-36
2024/04/08 03:40:15;;;;;;;6.93;2.47;;;13.30;99.90;;;;;;13517813;26;20447;-35
2024/04/08 03:46:17;;;;;;;4.88;2.30;;;13.00;99.90;;;;;;13515929;26;20330;-35
2024/04/08 03:52:19;;;;;;;6.32;2.25;;;13.00;99.90;;;;;;13528970;26;20022;-35
2024/04/08 03:58:21;;;;;;;7.40;2.80;;;13.00;99.90;;;;;;13523754;26;20043;-36
2024/04/08 04:04:24;;;;;;;5.93;2.60;;;13.10;99.90;;;;;;13551797;26;20046;-36
2024/04/08 04:10:26;;;;;;;5.03;2.63;;;13.20;99.90;;;;;;13513154;26;19999;-35
2024/04/08 04:16:28;;;;;;;4.72;2.42;;;12.90;99.90;;;;;;13510778;26;20038;-35
2024/04/08 04:22:30;;;;;;;4.88;2.22;;;12.80;99.90;;;;;;13514718;26;20047;-35
2024/04/08 04:28:32;;;;;;;4.00;1.95;;;12.70;99.90;;;;;;13454415;26;20021;-36
2024/04/08 04:34:34;;;;;;;8.23;2.40;;;12.60;99.90;;;;;;13498614;26;20094;-36
2024/04/08 04:40:36;;;;;;;9.05;2.90;;;12.50;99.90;;;;;;13536759;26;20004;-35
2024/04/08 04:46:38;;;;;;;5.47;3.00;;;12.40;99.90;;;;;;13502064;26;20878;-40
2024/04/08 04:52:40;;;;;;;10.05;3.72;;;12.30;99.90;;;;;;13505439;26;20003;-36
2024/04/08 04:58:42;;;;;;;6.03;2.60;;;12.30;99.90;;;;;;13491641;26;20459;-35
2024/04/08 05:04:44;;;;;;;8.90;2.40;;;12.30;99.90;;;;;;13504607;26;20002;-36
2024/04/08 05:10:46;;;;;;;5.78;2.20;;;12.30;99.90;;;;;;13506747;26;20003;-36
2024/04/08 05:16:49;;;;;;;5.55;1.95;;;12.30;99.90;;;;;;13494170;26;20514;-36
2024/04/08 05:22:51;;;;;;;5.93;1.90;;;12.30;99.90;;;;;;13517362;26;20434;-36
2024/04/08 05:28:53;;;;;;;6.25;2.28;;;12.30;99.90;;;;;;13463616;26;20079;-36
2024/04/08 05:34:54;;;;;;;6.45;2.85;;;12.40;99.90;;;;;;13522870;26;20010;-36
2024/04/08 05:41:01;;;;;;;6.95;2.80;;;12.50;99.90;;;;;;13511312;26;20015;-36
2024/04/08 05:47:03;;;;;;;6.28;3.00;;;12.40;99.90;;;;;;13503020;26;20042;-36
2024/04/08 05:53:05;;;;;;;5.57;2.85;;;12.50;99.90;;;;;;13530645;26;20015;-36
2024/04/08 05:59:07;;;;;;;7.30;3.80;;;12.60;99.90;;;;;;13493187;26;20002;-36
2024/04/08 06:05:10;;;;;;;7.85;3.63;;;12.60;99.90;;;;;;13464638;26;20046;-36
2024/04/08 06:11:12;;;;;;;6.97;3.35;;;12.70;99.90;;;;;;13518032;26;20008;-36
2024/04/08 06:17:14;;;;;;;7.15;3.80;;;12.90;99.90;;;;;;13534548;26;20018;-36
2024/04/08 06:23:15;;;;;;;9.02;4.03;;;13.00;99.90;;;;;;13525101;26;20010;-35
2024/04/08 06:29:17;;;;;;;12.00;5.20;;;13.10;99.90;;;;;;13459929;26;20043;-35
2024/04/08 06:35:20;;;;;;;8.25;5.13;;;13.10;99.90;;;;;;13530652;26;20006;-36
2024/04/08 06:41:22;;;;;;;9.88;4.80;;;13.10;99.90;;;;;;13540239;26;20082;-36
2024/04/08 06:47:24;;;;;;;9.65;4.60;;;13.10;99.90;;;;;;13521931;26;20048;-36
2024/04/08 06:53:26;;;;;;;8.45;4.32;;;13.20;99.90;;;;;;13506627;26;19999;-36
2024/04/08 06:59:28;;;;;;;7.72;3.78;;;13.30;99.90;;;;;;13459597;26;20117;-36
2024/04/08 07:05:30;;;;;;;6.10;4.10;;;13.40;99.90;;;;;;13537901;26;20018;-36
2024/04/08 07:11:32;;;;;;;8.07;4.00;;;13.40;99.90;;;;;;13525774;26;20577;-36
2024/04/08 07:17:35;;;;;;;9.32;3.60;;;13.50;99.90;;;;;;13541214;26;20002;-36
2024/04/08 07:23:37;;;;;;;7.07;3.63;;;13.60;99.90;;;;;;13499637;26;20051;-36
2024/04/08 07:29:39;;;;;;;7.63;4.10;;;13.70;99.90;;;;;;13466793;26;20344;-36
2024/04/08 07:35:41;;;;;;;6.93;4.45;;;13.60;99.90;;;;;;13526823;26;20022;-36
2024/04/08 07:41:43;;;;;;;10.55;4.97;;;13.70;99.90;;;;;;13528834;26;20013;-36
2024/04/08 07:47:45;;;;;;;7.88;4.60;;;13.90;99.90;;;;;;13500217;26;20006;-36
2024/04/08 07:53:47;;;;;;;6.85;4.80;;;13.80;99.90;;;;;;13503511;26;19995;-36
2024/04/08 07:59:52;;;;;;;10.23;4.70;;;13.90;99.90;;;;;;13516332;26;20003;-36
2024/04/08 08:05:54;;;;;;;;;;;13.90;99.90;;;;;;13535461;26;19996;-36
2024/04/08 08:11:58;;;;;;;6.35;4.53;;;13.90;99.90;;;;;;13524936;26;19924;-36
2024/04/08 08:18:00;;;;;;;7.00;4.00;;;14.00;99.90;;;;;;13498196;26;19999;-36
2024/04/08 08:24:02;;;;;;;7.30;4.22;;;14.20;99.90;;;;;;13512172;26;20452;-36
2024/04/08 08:30:05;;;;;;;6.20;3.95;;;14.60;99.90;;;;;;13487144;26;20447;-36
2024/04/08 08:36:07;;;;;;;9.90;4.07;;;15.00;99.90;;;;;;13520503;26;20031;-36
2024/04/08 08:42:18;;;;;;;5.40;4.13;;;15.80;99.90;;;;;;13540835;26;20026;-36
2024/04/08 08:48:21;;;;;;;6.85;3.75;;;16.30;99.90;;;;;;13512184;26;20003;-36
2024/04/08 08:54:23;;;;;;;7.00;4.00;;;16.20;99.90;;;;;;13518612;26;20006;-35
2024/04/08 09:00:25;;;;;;;6.85;3.75;;;16.10;99.90;;;;;;13528137;26;20025;-36
2024/04/08 09:06:27;;;;;;;7.88;3.92;;;16.50;99.90;;;;;;13518987;26;20016;-36
2024/04/08 09:12:29;;;;;;;12.25;4.68;;;16.00;99.90;;;;;;13518952;26;20025;-36
2024/04/08 09:18:31;;;;;;;8.80;4.05;;;16.00;99.90;;;;;;13526646;26;20017;-36
2024/04/08 09:24:33;;;;;;;9.45;4.47;;;16.50;99.90;;;;;;13493785;26;19999;-36
2024/04/08 09:30:35;;;;;;;8.65;5.72;;;16.90;99.90;;;;;;13448860;26;20416;-36
2024/04/08 09:36:39;;;;;;;8.52;5.55;;;17.60;99.90;;;;;;13521602;26;20003;-36
2024/04/08 09:42:43;;;;;;;11.02;6.30;;;18.20;99.90;;;;;;13534615;26;20003;-36
2024/04/08 09:48:46;;;;;;;9.95;8.73;;;18.60;99.90;;;;;;13536867;26;20002;-36
2024/04/08 09:54:48;;;;;;;7.70;6.90;;;18.90;99.90;;;;;;13534095;26;20019;-36
2024/04/08 10:00:52;;;;;;;11.30;10.25;;;18.90;99.90;;;;;;13535828;26;20013;-37
2024/04/08 10:06:55;;;;;;;10.52;7.20;;;19.50;99.90;;;;;;13559022;26;20003;-36
2024/04/08 10:12:59;;;;;;;8.70;6.90;;;18.60;99.90;;;;;;13509356;26;20008;-36
2024/04/08 10:19:01;;;;;;;8.15;6.32;;;18.40;99.90;;;;;;13507100;26;20026;-36
2024/04/08 10:25:03;;;;;;;8.25;5.68;;;19.30;99.90;;;;;;13493602;26;20004;-36
2024/04/08 10:31:05;;;;;;;11.00;5.57;;;19.80;99.90;;;;;;13470728;26;20010;-36
2024/04/08 10:37:07;;;;;;;14.27;9.00;;;20.30;99.90;;;;;;13529861;26;20022;-36
2024/04/08 10:43:09;;;;;;;10.05;7.38;;;20.50;99.90;;;;;;13509425;26;20013;-36
2024/04/08 10:49:11;;;;;;;10.65;7.38;;;20.50;99.90;;;;;;13524418;26;20021;-36
2024/04/08 10:55:13;;;;;;;10.48;7.80;;;20.70;99.90;;;;;;13522095;26;20678;-36
2024/04/08 11:01:16;;;;;;;9.75;8.40;;;20.70;99.90;;;;;;13515480;26;20008;-36
2024/04/08 11:07:18;;;;;;;10.07;9.00;;;20.80;99.90;;;;;;13559593;26;20351;-36
2024/04/08 11:13:20;;;;;;;12.30;7.43;;;20.20;99.90;;;;;;13530392;26;20025;-36
2024/04/08 11:19:22;;;;;;;10.07;5.72;;;19.90;99.90;;;;;;13506310;26;20014;-36
2024/04/08 11:25:24;;;;;;;9.07;5.90;;;20.20;99.90;;;;;;13489144;26;20347;-36
2024/04/08 11:31:31;;;;;;;10.32;5.60;;;20.70;99.90;;;;;;13425081;26;20088;-36
2024/04/08 11:37:33;;;;;;;10.88;6.32;;;20.80;99.90;;;;;;13509793;26;20018;-36
2024/04/08 11:43:35;;;;;;;11.10;5.80;;;20.10;99.90;;;;;;13516743;26;20268;-36
2024/04/08 11:49:38;;;;;;;10.93;5.68;;;20.30;99.90;;;;;;13530365;26;20013;-36
2024/04/08 11:55:41;;;;;;;6.40;5.50;;;20.30;99.90;;;;;;13505418;26;20010;-37
2024/04/08 12:01:45;;;;;;;9.25;4.60;;;20.40;99.90;;;;;;13511210;26;20003;-36
2024/04/08 12:07:47;;;;;;;13.23;5.82;;;21.20;99.90;;;;;;13524996;26;20005;-36
2024/04/08 12:13:50;;;;;;;11.35;7.32;;;21.20;99.90;;;;;;13525673;26;20010;-36
2024/04/08 12:19:53;;;;;;;9.13;5.43;;;21.20;99.90;;;;;;13535179;26;20013;-36
2024/04/08 12:25:55;;;;;;;8.05;4.68;;;21.10;99.90;;;;;;13503098;26;20014;-38
2024/04/08 12:31:57;;;;;;;11.07;4.97;;;21.20;99.90;;;;;;13454787;26;20101;-36
2024/04/08 12:37:59;;;;;;;11.68;5.22;;;21.70;99.90;;;;;;13516444;26;20104;-36
2024/04/08 12:44:01;;;;;;;9.50;5.38;;;21.40;99.90;;;;;;13476096;26;20014;-36
2024/04/08 12:50:03;;;;;;;7.47;5.35;;;22.00;99.90;;;;;;13497116;26;20527;-36
2024/04/08 12:56:09;;;;;;;7.50;5.43;;;22.00;99.90;;;;;;13485339;26;20039;-36
2024/04/08 13:02:11;;;;;;;6.70;5.43;;;21.60;99.90;;;;;;13547335;26;20002;-36
2024/04/08 13:08:13;;;;;;;7.75;5.57;;;21.40;99.90;;;;;;13515805;26;20092;-36
2024/04/08 13:14:15;;;;;;;13.13;5.93;;;21.10;99.90;;;;;;13510480;26;20003;-36
2024/04/08 13:20:19;;;;;;;10.07;4.68;;;20.40;99.90;;;;;;13503697;26;20022;-36
2024/04/08 13:26:22;;;;;;;8.50;4.20;;;20.80;99.90;;;;;;13514622;26;20018;-36
2024/04/08 13:32:24;;;;;;;7.10;4.73;;;21.10;99.90;;;;;;13455933;26;20486;-39
2024/04/08 13:38:27;;;;;;;9.77;4.10;;;21.40;99.90;;;;;;13538392;26;20002;-37
2024/04/08 13:44:29;;;;;;;12.25;4.97;;;21.70;99.90;;;;;;13511399;26;20434;-37
2024/04/08 13:50:31;;;;;;;12.18;4.82;;;21.60;99.90;;;;;;13511010;26;20014;-36
2024/04/08 13:56:33;;;;;;;8.20;4.80;;;21.40;99.90;;;;;;13497898;26;20090;-37
2024/04/08 14:02:36;;;;;;;9.20;3.97;;;21.50;99.90;;;;;;13511347;26;20014;-36
2024/04/08 14:08:38;;;;;;;10.50;4.00;;;21.40;99.90;;;;;;13541871;26;20013;-40
2024/04/08 14:14:40;;;;;;;10.23;3.92;;;21.30;99.90;;;;;;13511729;26;20021;-36
2024/04/08 14:20:43;;;;;;;7.47;3.83;;;21.50;99.90;;;;;;13518903;26;20015;-36
2024/04/08 14:26:45;;;;;;;13.02;5.28;;;21.30;99.90;;;;;;13528635;26;20346;-37
2024/04/08 14:32:47;;;;;;;11.07;4.55;;;20.90;99.90;;;;;;13440313;26;20019;-36
2024/04/08 14:38:49;;;;;;;8.20;3.87;;;20.70;99.90;;;;;;13527993;26;20051;-36
2024/04/08 14:45:11;;;;;;;8.18;4.00;;;20.70;99.90;;;;;;13518177;26;19999;-36
2024/04/08 14:51:14;;;;;;;11.38;4.40;;;21.00;99.90;;;;;;13514956;26;20013;-37
2024/04/08 14:57:16;;;;;;;10.68;3.97;;;20.90;99.90;;;;;;13518707;26;20085;-37
2024/04/08 15:03:18;;;;;;;9.85;4.28;;;20.60;99.90;;;;;;13492242;26;20133;-36
2024/04/08 15:09:21;;;;;;;8.27;4.43;;;20.30;99.90;;;;;;13499601;26;20845;-36
2024/04/08 15:15:23;;;;;;;9.85;4.40;;;20.00;99.90;;;;;;13454764;26;20074;-36
2024/04/08 15:21:25;;;;;;;8.07;3.72;;;19.90;99.90;;;;;;13492585;26;20007;-36
2024/04/08 15:27:28;;;;;;;7.88;3.78;;;19.70;99.90;;;;;;13498209;26;19999;-36
2024/04/08 15:33:30;;;;;;;13.77;3.90;;;19.70;99.90;;;;;;13482169;26;20083;-37
2024/04/08 15:39:33;;;;;;;13.10;4.45;;;19.70;99.90;;;;;;13471149;26;20352;-36
2024/04/08 15:45:35;;;;;;;8.82;3.58;;;19.80;99.90;;;;;;13496204;26;19999;-36
2024/04/08 15:51:37;;;;;;;6.15;3.08;;;19.70;99.90;;;;;;13489001;26;20003;-38
2024/04/08 15:57:39;;;;;;;12.23;6.88;;;19.60;99.90;;;;;;13517257;26;19999;-37
2024/04/08 16:03:41;;;;;;;8.95;4.07;;;19.50;99.90;;;;;;13490580;26;19999;-36
2024/04/08 16:09:43;;;;;;;11.35;3.58;;;19.40;99.90;;;;;;13507515;26;20003;-36
2024/04/08 16:15:49;;;;;;;10.07;4.10;;;19.40;99.90;;;;;;13500033;26;20464;-36
2024/04/08 16:21:51;;;;;;;11.10;3.30;;;19.10;99.90;;;;;;13498470;26;20018;-36
2024/04/08 16:27:54;;;;;;;7.68;2.80;;;19.10;99.90;;;;;;13440491;26;20011;-36
2024/04/08 16:33:56;;;;;;;9.07;3.10;;;19.10;99.90;;;;;;13532090;26;20007;-37
2024/04/08 16:40:00;;;;;;;8.65;2.97;;;19.00;99.90;;;;;;13503475;26;19999;-36
2024/04/08 16:46:02;;;;;;;8.98;3.22;;;19.10;99.90;;;;;;13489077;26;20453;-37
2024/04/08 16:52:04;;;;;;;13.30;3.63;;;19.60;99.90;;;;;;13524007;26;20457;-36
2024/04/08 16:58:06;;;;;;;8.18;3.25;;;20.00;99.90;;;;;;13449363;26;20003;-36
2024/04/08 17:04:08;;;;;;;10.85;3.35;;;20.00;99.90;;;;;;13551806;26;20010;-37
2024/04/08 17:10:11;;;;;;;11.60;3.70;;;20.00;99.90;;;;;;13490545;26;20003;-37
2024/04/08 17:16:13;;;;;;;9.95;4.22;;;19.70;99.90;;;;;;13507792;26;20066;-37
2024/04/08 17:22:15;;;;;;;6.47;3.47;;;19.50;99.90;;;;;;13499014;26;20368;-36
2024/04/08 17:28:17;;;;;;;8.88;4.20;;;19.40;99.90;;;;;;13451367;26;20018;-36
2024/04/08 17:34:19;;;;;;;12.50;3.55;;;19.40;99.90;;;;;;13505326;26;20075;-36
2024/04/08 17:40:21;;;;;;;7.15;3.33;;;19.10;99.90;;;;;;13517292;26;20753;-36
2024/04/08 17:46:24;;;;;;;14.50;3.92;;;19.00;99.90;;;;;;13495627;26;20441;-36
2024/04/08 17:52:26;;;;;;;10.57;3.70;;;18.80;99.90;;;;;;13506848;26;20011;-36
2024/04/08 17:58:29;;;;;;;10.00;3.97;;;18.70;99.90;;;;;;13491891;26;19999;-36
2024/04/08 18:04:31;;;;;;;8.90;3.47;;;18.50;99.90;;;;;;13532092;26;20361;-36
2024/04/08 18:10:33;;;;;;;7.25;3.60;;;18.30;99.90;;;;;;13508251;26;20021;-36
2024/04/08 18:16:37;;;;;;;9.25;3.42;;;18.10;99.90;;;;;;13552478;26;20014;-36
2024/04/08 18:22:39;;;;;;;10.25;3.70;;;17.90;99.90;;;;;;13513333;26;20007;-36
2024/04/08 18:28:43;;;;;;;9.20;4.28;;;17.80;99.90;;;;;;13446679;26;20017;-36
2024/04/08 18:34:49;;;;;;;6.82;4.10;;;17.70;99.90;;;;;;13500564;26;20354;-37
2024/04/08 18:40:51;;;;;;;12.43;4.35;;;17.50;99.90;;;;;;13508041;26;19999;-36
2024/04/08 18:46:53;;;;;;;11.85;4.10;;;17.30;99.90;;;;;;13488323;26;20553;-36
2024/04/08 18:52:55;;;;;;;10.05;3.83;;;17.20;99.90;;;;;;13516399;26;19999;-36
2024/04/08 18:58:59;;;;;;;7.38;3.90;;;17.00;99.90;;;;;;13512381;26;20018;-36
2024/04/08 19:05:04;;;;;;;9.40;4.18;;;16.90;99.90;;;;;;13547539;26;20008;-36
2024/04/08 19:11:06;;;;;;;11.00;5.03;;;16.70;99.90;;;;;;13472955;26;20486;-36
2024/04/08 19:17:08;;;;;;;10.15;5.55;;;16.70;99.90;;;;;;13544789;26;20099;-36
2024/04/08 19:23:10;;;;;;;12.88;5.47;;;16.50;99.90;;;;;;13490861;26;20070;-36
2024/04/08 19:29:12;;;;;;;18.98;6.47;;;16.40;99.90;;;;;;13463469;26;20007;-36
2024/04/08 19:35:14;;;;;;;11.05;4.85;;;16.30;99.90;;;;;;13521436;26;19998;-36
2024/04/08 19:41:16;;;;;;;12.20;5.05;;;16.20;99.90;;;;;;13499913;26;20403;-36
2024/04/08 19:47:18;;;;;;;14.98;4.57;;;16.30;99.90;;;;;;13501801;26;20010;-36
2024/04/08 19:53:21;;;;;;;12.10;3.85;;;16.40;99.90;;;;;;13505212;26;20086;-36
2024/04/08 19:59:23;;;;;;;10.38;4.30;;;16.40;99.90;;;;;;13507535;26;20158;-36
2024/04/08 20:05:26;;;;;;;8.18;3.17;;;16.50;99.90;;;;;;13542062;26;20017;-36
2024/04/08 20:11:28;;;;;;;8.00;3.67;;;16.60;99.90;;;;;;13505962;26;19996;-36
2024/04/08 20:17:30;;;;;;;11.10;3.47;;;16.70;99.90;;;;;;13516524;26;20017;-36
2024/04/08 20:23:32;;;;;;;9.73;3.58;;;16.70;99.90;;;;;;13478098;26;20458;-36
2024/04/08 20:29:34;;;;;;;10.18;4.13;;;16.60;99.90;;;;;;13490928;26;20011;-36
2024/04/08 20:35:36;;;;;;;11.13;2.95;;;16.60;99.90;;;;;;13495487;26;20392;-36
2024/04/08 20:41:38;;;;;;;9.18;3.33;;;16.60;99.90;;;;;;13497004;26;19999;-36
2024/04/08 20:47:40;;;;;;;11.65;3.05;;;16.60;99.90;;;;;;13493564;26;20741;-36
2024/04/08 20:53:42;;;;;;;11.43;2.92;;;16.70;99.90;;;;;;13524941;26;20410;-36
2024/04/08 20:59:44;;;;;;;9.85;3.30;;;16.70;99.90;;;;;;13507003;26;19998;-36
2024/04/08 21:05:57;;;;;;;10.30;4.30;;;16.60;99.90;;;;;;13541683;26;20011;-36
2024/04/08 21:11:59;;;;;;;9.63;3.35;;;16.50;99.90;;;;;;13524313;26;20018;-36
2024/04/08 21:18:01;;;;;;;10.55;3.15;;;16.30;99.90;;;;;;13508777;26;20660;-36
2024/04/08 21:24:04;;;;;;;10.75;3.00;;;16.30;99.90;;;;;;13512864;26;20022;-37
2024/04/08 21:30:08;;;;;;;10.25;2.78;;;16.40;99.90;;;;;;13461395;26;20022;-36
2024/04/08 21:36:10;;;;;;;9.73;4.22;;;16.60;99.90;;;;;;13528386;26;20004;-36
2024/04/08 21:42:12;;;;;;;8.93;3.45;;;16.60;99.90;;;;;;13480767;26;20106;-36
2024/04/08 21:48:14;;;;;;;12.23;4.05;;;16.70;99.90;;;;;;13482004;26;20409;-36
2024/04/08 21:54:16;;;;;;;6.85;3.25;;;16.40;99.90;;;;;;13496281;26;20010;-36
2024/04/08 22:00:19;;;;;;;9.23;3.80;;;16.30;99.90;;;;;;13515390;26;20339;-37
2024/04/08 22:06:22;;;;;;;10.43;3.92;;;16.00;99.90;;;;;;13488054;26;20014;-36
2024/04/08 22:12:24;;;;;;;9.57;4.10;;;15.90;99.90;;;;;;13523668;26;20096;-36
2024/04/08 22:18:26;;;;;;;11.07;3.58;;;15.90;99.90;;;;;;13520107;26;20039;-36
2024/04/08 22:24:28;;;;;;;10.13;3.60;;;16.00;99.90;;;;;;13502846;26;19999;-36
2024/04/08 22:30:31;;;;;;;7.97;3.50;;;15.90;99.90;;;;;;13462956;26;20022;-36
2024/04/08 22:36:33;;;;;;;8.32;3.50;;;15.70;99.90;;;;;;13514566;26;20059;-36
2024/04/08 22:42:35;;;;;;;11.07;3.50;;;15.70;99.90;;;;;;13508068;26;20093;-36
2024/04/08 22:48:37;;;;;;;7.18;2.92;;;15.60;99.90;;;;;;13498899;26;20051;-36
2024/04/08 22:54:40;;;;;;;10.50;3.15;;;15.60;99.90;;;;;;13510726;26;20003;-36
2024/04/08 23:00:42;;;;;;;9.82;3.50;;;15.60;99.90;;;;;;13498496;26;20437;-36
2024/04/08 23:06:45;;;;;;;11.73;3.88;;;15.30;99.90;;;;;;13527408;26;20039;-36
2024/04/08 23:12:47;;;;;;;11.55;4.15;;;15.10;99.90;;;;;;13489129;26;20351;-36
2024/04/08 23:18:49;;;;;;;9.45;3.63;;;15.00;99.90;;;;;;13506214;26;20006;-36
2024/04/08 23:24:51;;;;;;;9.90;3.28;;;15.00;99.90;;;;;;13522951;26;20006;-36
2024/04/08 23:30:53;;;;;;;9.40;3.10;;;15.00;99.90;;;;;;13496438;26;20059;-36
2024/04/08 23:36:55;;;;;;;9.05;2.90;;;15.00;99.90;;;;;;13539570;26;20021;-36
2024/04/08 23:42:56;;;;;;;15.68;2.85;;;15.20;99.90;;;;;;13520642;26;20002;-36
2024/04/08 23:48:59;;;;;;;14.52;3.55;;;16.40;99.90;;;;;;13511683;26;20009;-36
2024/04/08 23:55:01;;;;;;;10.82;3.22;;;18.00;99.90;;;;;;13474720;26;20098;-36
